METAR Data
IDs: Format: Raw Decoded Include TAF

Data at: 0859 UTC 13 Aug 2022

EDFM 130850Z 33005KT 250V050 CAVOK 26/10 Q1016